Time;durP1;ratioP1;P1;durP2;ratioP2;P2;SDS_P1;SDS_P2;PMS_P1;PMS_P2;Temp;Humidity;BMP_temperature;BMP_pressure;BME280_temperature;BME280_humidity;BME280_pressure;Samples;Min_cycle;Max_cycle;Signal;HPM_P1;HPM_P2
2021/06/11 12:00:17;;;;;;;4.15;2.20;;;;;;;25.17;42.22;100032.94;1786653;78;21627;-82
2021/06/11 12:02:43;;;;;;;9.08;2.60;;;;;;;25.40;41.48;100027.25;1776290;78;21930;-83
2021/06/11 12:05:10;;;;;;;4.17;2.22;;;;;;;24.87;40.85;100034.27;1814389;78;20973;-84
2021/06/11 12:07:36;;;;;;;5.62;2.30;;;;;;;24.95;41.73;100024.89;1815243;79;21016;-83
2021/06/11 12:10:01;;;;;;;7.45;2.20;;;;;;;24.79;40.54;100023.92;1814185;79;20889;-83
2021/06/11 12:12:27;;;;;;;4.73;2.10;;;;;;;24.79;40.38;100021.22;1802146;78;24824;-83
2021/06/11 12:14:54;;;;;;;5.17;2.10;;;;;;;24.94;40.42;100015.98;1786723;78;21467;-85
2021/06/11 12:17:20;;;;;;;4.03;1.95;;;;;;;25.23;40.33;100012.98;1792031;78;21091;-83
2021/06/11 12:19:46;;;;;;;8.87;2.37;;;;;;;25.21;40.45;100007.03;1811843;78;21189;-81
2021/06/11 12:22:13;;;;;;;7.78;2.15;;;;;;;24.84;40.47;100018.56;1804545;78;21379;-82
2021/06/11 12:24:39;;;;;;;6.15;2.20;;;;;;;25.10;40.53;100007.48;1804037;78;21362;-82
2021/06/11 12:27:06;;;;;;;3.10;2.10;;;;;;;25.21;40.47;100002.98;1811802;77;21157;-82
2021/06/11 12:29:32;;;;;;;5.87;2.12;;;;;;;25.24;40.42;100009.22;1808429;78;21036;-82
2021/06/11 12:31:57;;;;;;;7.03;2.20;;;;;;;25.27;39.76;100003.30;1743334;81;21203;-82
2021/06/11 12:34:23;;;;;;;7.37;2.45;;;;;;;25.50;39.68;99993.25;1742438;81;20994;-80
2021/06/11 12:36:49;;;;;;;8.07;1.97;;;;;;;25.45;40.10;99989.98;1743677;81;21075;-82
2021/06/11 12:39:15;;;;;;;8.53;2.70;;;;;;;25.53;39.86;99999.50;1752266;81;20966;-82
2021/06/11 12:41:40;;;;;;;5.27;1.90;;;;;;;25.55;39.50;99998.69;1755361;81;26703;-81
2021/06/11 12:44:17;;;;;;;7.17;1.95;;;;;;;25.75;38.90;99992.06;1746528;81;20863;-81
2021/06/11 12:46:46;;;;;;;2.12;1.55;;;;;;;25.75;38.14;99997.47;1779989;79;27104;-83
2021/06/11 12:49:12;;;;;;;2.60;1.50;;;;;;;25.89;37.41;99984.84;1786150;79;22108;-83
2021/06/11 12:51:38;;;;;;;3.42;1.50;;;;;;;25.89;37.45;100001.88;1786911;79;21006;-83
2021/06/11 12:54:04;;;;;;;4.40;1.90;;;;;;;25.84;36.03;99999.16;1787480;79;26675;-83
2021/06/11 12:56:30;;;;;;;5.23;1.90;;;;;;;25.65;37.43;99996.03;1786899;79;21081;-86
2021/06/11 12:58:56;;;;;;;5.17;1.90;;;;;;;25.94;37.71;99991.63;1786432;79;21923;-84
2021/06/11 13:01:22;;;;;;;4.80;1.70;;;;;;;26.02;37.28;99989.80;1785888;79;22013;-82
2021/06/11 13:03:48;;;;;;;4.33;1.90;;;;;;;26.28;37.45;99975.84;1789902;79;21070;-82
2021/06/11 13:06:14;;;;;;;3.00;1.80;;;;;;;26.36;36.72;99986.70;1791605;79;21040;-81
2021/06/11 13:08:39;;;;;;;4.83;1.62;;;;;;;26.06;36.18;99969.27;1791673;79;20884;-82
2021/06/11 13:11:05;;;;;;;5.08;2.15;;;;;;;25.98;36.73;99975.19;1791739;79;22041;-82
2021/06/11 13:13:31;;;;;;;4.78;1.62;;;;;;;26.29;36.91;99982.09;1775276;79;21218;-81
2021/06/11 13:15:57;;;;;;;5.30;1.70;;;;;;;26.08;36.60;99977.13;1807619;79;28368;-83
2021/06/11 13:18:22;;;;;;;3.58;1.77;;;;;;;26.13;36.87;99973.91;1793767;79;20968;-83
2021/06/11 13:20:48;;;;;;;4.90;2.00;;;;;;;26.38;36.83;99975.61;1791445;79;20949;-81
2021/06/11 13:23:14;;;;;;;5.95;1.85;;;;;;;26.27;36.42;99993.19;1786257;79;20961;-82
2021/06/11 13:25:40;;;;;;;6.57;1.90;;;;;;;26.24;35.84;99980.70;1799378;78;22093;-83
2021/06/11 13:28:06;;;;;;;4.35;1.90;;;;;;;26.17;36.15;99993.68;1799734;79;20918;-81
2021/06/11 13:30:31;;;;;;;6.05;1.70;;;;;;;25.90;37.19;99988.64;1797581;79;26132;-83
2021/06/11 13:32:57;;;;;;;4.97;1.92;;;;;;;26.26;36.87;99979.91;1795761;79;20956;-83
2021/06/11 13:35:24;;;;;;;4.40;1.97;;;;;;;26.48;36.91;99978.36;1809329;79;22441;-82
2021/06/11 13:37:50;;;;;;;2.47;1.57;;;;;;;26.77;36.52;99978.73;1790416;79;21062;-82
2021/06/11 13:40:15;;;;;;;7.47;1.87;;;;;;;27.03;35.59;99985.00;1796391;79;21030;-83
2021/06/11 13:42:42;;;;;;;6.92;1.90;;;;;;;27.18;35.08;99980.12;1791052;79;20996;-82
2021/06/11 13:45:14;;;;;;;8.20;2.00;;;;;;;27.55;35.52;99989.89;1790686;79;21802;-83
2021/06/11 13:47:44;;;;;;;4.12;1.82;;;;;;;27.32;34.89;99972.84;1790696;78;21078;-83
2021/06/11 13:50:23;;;;;;;4.53;1.57;;;;;;;27.10;34.31;99976.59;1805959;79;22009;-82
2021/06/11 13:52:49;;;;;;;6.20;1.62;;;;;;;27.43;33.91;99974.44;1785768;78;21064;-84
2021/06/11 13:55:15;;;;;;;3.40;1.60;;;;;;;27.89;33.81;99977.07;1785472;78;26725;-81
2021/06/11 13:57:41;;;;;;;4.67;1.85;;;;;;;27.86;32.88;99974.91;1785083;79;21032;-82
2021/06/11 14:00:16;;;;;;;5.33;1.80;;;;;;;27.80;32.16;99973.30;1794702;79;20865;-83
2021/06/11 14:02:42;;;;;;;4.15;1.80;;;;;;;27.93;32.25;99979.48;1801138;79;21758;-79
2021/06/11 14:05:09;;;;;;;5.43;1.90;;;;;;;27.96;32.33;99974.64;1792769;78;21008;-79
2021/06/11 14:07:35;;;;;;;3.15;1.72;;;;;;;27.85;32.49;99974.62;1795850;79;21786;-81
2021/06/11 14:10:00;;;;;;;3.63;2.00;;;;;;;28.20;32.79;99971.57;1794139;79;20898;-84
2021/06/11 14:12:27;;;;;;;5.43;1.87;;;;;;;28.20;32.79;99971.57;1793866;78;20978;-80
2021/06/11 14:14:52;;;;;;;2.47;1.70;;;;;;;28.12;32.51;99976.20;1798453;79;21063;-80
2021/06/11 14:17:18;;;;;;;4.90;1.90;;;;;;;27.92;33.00;99977.87;1801083;79;20885;-80
2021/06/11 14:19:44;;;;;;;7.87;2.23;;;;;;;27.84;31.94;99973.55;1806799;79;20968;-80
2021/06/11 14:22:09;;;;;;;5.27;1.60;;;;;;;27.71;31.92;99977.66;1807830;79;20881;-81
2021/06/11 14:24:36;;;;;;;3.07;1.73;;;;;;;27.99;31.29;99967.30;1795053;79;21308;-81
2021/06/11 14:27:03;;;;;;;4.42;1.60;;;;;;;28.21;31.08;99962.31;1803950;78;21335;-81
2021/06/11 14:29:29;;;;;;;2.25;1.40;;;;;;;27.87;30.71;99972.45;1819445;78;21656;-81
2021/06/11 14:31:55;;;;;;;4.75;1.62;;;;;;;27.89;30.73;99967.58;1820039;78;21736;-81
2021/06/11 14:34:21;;;;;;;4.37;1.37;;;;;;;27.74;30.67;99975.75;1820457;78;20926;-82
2021/06/11 14:36:46;;;;;;;4.27;1.60;;;;;;;27.66;30.00;99981.20;1797206;78;20894;-81
2021/06/11 14:39:12;;;;;;;3.85;1.45;;;;;;;27.57;30.36;99963.84;1789769;79;21126;-79
2021/06/11 14:41:38;;;;;;;3.60;1.20;;;;;;;27.68;30.46;99965.45;1788528;79;26090;-80
2021/06/11 14:44:05;;;;;;;4.47;1.30;;;;;;;28.02;29.67;99958.61;1793033;79;25207;-81
2021/06/11 14:46:30;;;;;;;;;;;;;;;28.03;28.38;99967.00;1791869;79;21139;-83
2021/06/11 14:48:56;;;;;;;3.93;1.50;;;;;;;27.62;28.27;99969.81;1793379;79;20535;-81
2021/06/11 14:51:22;;;;;;;2.57;1.30;;;;;;;27.36;28.78;99968.47;1785997;79;21130;-83
2021/06/11 14:53:49;;;;;;;6.08;1.30;;;;;;;27.53;28.63;99966.30;1790663;79;21097;-81
2021/06/11 14:56:19;;;;;;;4.42;1.62;;;;;;;27.73;28.42;99956.48;1787602;79;21166;-80
2021/06/11 14:58:43;;;;;;;1.85;1.30;;;;;;;28.17;28.16;99962.62;1794808;77;21565;-81
2021/06/11 15:01:09;;;;;;;2.53;1.30;;;;;;;28.17;28.23;99965.34;1799505;79;21158;-81
2021/06/11 15:03:35;;;;;;;4.07;1.20;;;;;;;28.45;28.15;99952.97;1804193;79;22156;-82
2021/06/11 15:06:07;;;;;;;4.17;1.20;;;;;;;28.93;27.82;99948.34;1804722;79;20944;-81
2021/06/11 15:08:35;;;;;;;4.10;1.37;;;;;;;29.01;27.27;99950.44;1786854;78;21024;-83
2021/06/11 15:11:01;;;;;;;2.50;1.30;;;;;;;28.88;27.59;99943.48;1785547;79;21050;-79
2021/06/11 15:13:27;;;;;;;3.47;1.37;;;;;;;28.91;27.54;99945.08;1785532;79;20875;-83
2021/06/11 15:15:53;;;;;;;5.30;1.30;;;;;;;29.28;27.14;99937.47;1786374;79;21146;-82
2021/06/11 15:18:19;;;;;;;4.80;1.33;;;;;;;29.31;26.85;99940.42;1785517;79;20963;-79
2021/06/11 15:20:45;;;;;;;3.58;1.15;;;;;;;29.73;26.79;99940.25;1763793;80;21134;-82
2021/06/11 15:23:13;;;;;;;3.57;1.40;;;;;;;29.28;27.23;99938.27;1792347;79;20877;-81
2021/06/11 15:25:39;;;;;;;3.75;1.30;;;;;;;29.33;27.46;99938.24;1801820;77;21899;-81
2021/06/11 15:28:04;;;;;;;2.53;1.30;;;;;;;29.27;27.24;99939.39;1793966;77;22124;-81
2021/06/11 15:30:30;;;;;;;3.60;1.60;;;;;;;29.00;27.73;99939.30;1795834;77;20870;-82
2021/06/11 15:32:56;;;;;;;7.07;1.30;;;;;;;28.71;28.30;99934.36;1799103;78;20965;-79
2021/06/11 15:35:22;;;;;;;2.13;1.30;;;;;;;28.74;28.56;99931.08;1778193;78;20891;-84
2021/06/11 15:37:47;;;;;;;2.90;1.40;;;;;;;29.16;28.55;99925.57;1790575;78;20897;-81
2021/06/11 15:40:14;;;;;;;4.47;1.50;;;;;;;28.87;29.09;99926.89;1784207;78;21881;-82
2021/06/11 15:42:40;;;;;;;6.28;1.47;;;;;;;28.74;29.43;99929.16;1791113;78;21035;-80
2021/06/11 15:45:07;;;;;;;4.80;1.90;;;;;;;28.94;28.94;99930.91;1799336;78;20964;-80
2021/06/11 15:47:33;;;;;;;9.85;5.25;;;;;;;28.72;29.39;99935.44;1784776;78;21044;-81
2021/06/11 15:49:59;;;;;;;9.53;3.03;;;;;;;28.37;29.90;99933.20;1780850;78;21720;-82
2021/06/11 15:52:25;;;;;;;14.97;7.77;;;;;;;28.16;31.10;99937.10;1789822;78;21842;-81
2021/06/11 15:54:52;;;;;;;10.45;5.05;;;;;;;27.63;32.09;99937.53;1794944;78;21614;-82
2021/06/11 15:57:18;;;;;;;;;;;;;;;27.06;33.26;99934.84;1789753;78;21008;-81
2021/06/11 15:59:43;;;;;;;5.90;1.90;;;;;;;26.94;33.58;99931.59;1789642;78;20126;-82
2021/06/11 16:02:10;;;;;;;5.90;1.87;;;;;;;26.95;33.69;99942.16;1792849;78;21107;-83
2021/06/11 16:04:36;;;;;;;4.42;2.08;;;;;;;26.83;34.24;99938.38;1783655;79;21100;-82
2021/06/11 16:07:02;;;;;;;3.67;2.00;;;;;;;26.89;34.55;99932.95;1746142;81;20990;-81
2021/06/11 16:09:28;;;;;;;5.95;2.50;;;;;;;27.61;33.56;99935.62;1785551;80;21096;-82
2021/06/11 16:11:56;;;;;;;5.63;2.20;;;;;;;27.87;33.07;99933.09;1780579;80;21101;-83
2021/06/11 16:14:22;;;;;;;5.28;2.42;;;;;;;28.07;32.94;99930.88;1719820;81;21061;-82
2021/06/11 16:16:47;;;;;;;8.97;2.83;;;;;;;28.00;33.15;99928.19;1788310;79;21128;-80
2021/06/11 16:19:13;;;;;;;5.20;1.83;;;;;;;28.01;32.87;99928.47;1784559;78;20921;-79
2021/06/11 16:21:39;;;;;;;6.67;2.40;;;;;;;28.29;32.48;99926.97;1793643;79;20930;-82
2021/06/11 16:24:05;;;;;;;4.73;2.07;;;;;;;28.70;31.25;99927.29;1790920;78;20843;-82
2021/06/11 16:26:31;;;;;;;3.23;1.77;;;;;;;29.35;30.33;99935.20;1785856;79;21052;-82
2021/06/11 16:28:57;;;;;;;6.87;2.20;;;;;;;29.81;29.84;99931.23;1787639;79;21052;-82
2021/06/11 16:31:23;;;;;;;4.10;2.02;;;;;;;30.05;29.49;99912.95;1790192;78;26894;-84
2021/06/11 16:33:48;;;;;;;4.63;1.87;;;;;;;30.16;29.17;99934.59;1806414;79;24768;-83
2021/06/11 16:36:14;;;;;;;2.83;1.90;;;;;;;29.92;29.08;99946.33;1797126;79;20865;-82
2021/06/11 16:38:42;;;;;;;3.70;1.77;;;;;;;29.80;29.28;99940.48;1788935;79;21355;-80
2021/06/11 16:41:08;;;;;;;4.15;1.55;;;;;;;29.92;29.08;99940.09;1784027;78;21764;-84
2021/06/11 16:43:34;;;;;;;3.58;1.50;;;;;;;29.71;29.17;99941.09;1783803;80;21053;-82
2021/06/11 16:46:00;;;;;;;4.53;1.70;;;;;;;29.01;30.11;99943.64;1758719;78;21486;-81
2021/06/11 16:48:25;;;;;;;2.40;1.50;;;;;;;28.62;30.34;99948.55;1735192;81;22006;-81
2021/06/11 16:50:51;;;;;;;4.40;1.87;;;;;;;28.18;30.22;99949.29;1753981;80;21714;-80
2021/06/11 16:53:17;;;;;;;3.70;1.63;;;;;;;27.87;30.67;99959.43;1770463;79;21945;-81
2021/06/11 16:55:43;;;;;;;3.97;1.60;;;;;;;27.51;31.06;99961.67;1778319;79;28670;-81
2021/06/11 16:58:09;;;;;;;5.37;2.27;;;;;;;27.30;31.42;99958.69;1788138;79;20964;-83
2021/06/11 17:00:34;;;;;;;3.37;2.00;;;;;;;27.05;31.82;99957.63;1779099;78;27358;-81
2021/06/11 17:03:00;;;;;;;4.40;1.87;;;;;;;26.93;32.19;99953.02;1783328;79;21081;-80
2021/06/11 17:05:26;;;;;;;5.03;1.77;;;;;;;26.90;32.30;99951.65;1789112;78;21778;-81
2021/06/11 17:07:53;;;;;;;2.87;1.80;;;;;;;26.75;32.66;99957.85;1787360;78;20943;-81
2021/06/11 17:10:21;;;;;;;3.47;1.60;;;;;;;26.36;33.53;99962.34;1799033;79;20991;-81
2021/06/11 17:12:48;;;;;;;3.62;1.85;;;;;;;26.21;33.73;99959.57;1801043;78;20947;-81
2021/06/11 17:15:16;;;;;;;3.75;1.85;;;;;;;26.01;34.28;99964.36;1784693;80;21064;-80
2021/06/11 17:17:42;;;;;;;4.10;1.90;;;;;;;25.83;34.44;99965.05;1782444;80;21124;-82
2021/06/11 17:20:12;;;;;;;3.97;1.77;;;;;;;25.69;34.88;99967.41;1783392;80;20977;-83
2021/06/11 17:22:42;;;;;;;4.05;1.95;;;;;;;25.60;35.35;99960.86;1783220;80;21049;-83
2021/06/11 17:25:09;;;;;;;6.20;2.30;;;;;;;25.58;35.54;99960.31;1773903;80;21591;-84
2021/06/11 17:27:34;;;;;;;3.60;2.02;;;;;;;25.48;36.00;99958.88;1784461;80;21812;-83
2021/06/11 17:30:01;;;;;;;2.70;1.90;;;;;;;25.44;36.40;99960.75;1781540;80;22088;-82
2021/06/11 17:32:32;;;;;;;5.10;2.20;;;;;;;25.39;36.35;99963.98;1782233;79;21773;-81
2021/06/11 17:34:55;;;;;;;7.17;2.10;;;;;;;25.28;36.92;99965.75;1784656;79;20941;-81
2021/06/11 17:37:26;;;;;;;3.95;2.17;;;;;;;25.17;37.43;99974.31;1793496;79;20890;-80
2021/06/11 17:39:58;;;;;;;6.25;2.05;;;;;;;25.06;37.67;99970.71;1776913;79;21794;-81
2021/06/11 17:42:24;;;;;;;4.55;2.50;;;;;;;25.07;37.91;99972.86;1782938;78;21100;-81
2021/06/11 17:44:51;;;;;;;4.20;2.08;;;;;;;24.98;38.11;99981.96;1776607;79;21059;-80
2021/06/11 17:47:17;;;;;;;3.85;2.05;;;;;;;24.92;38.46;99977.58;1781294;79;21011;-84
2021/06/11 17:49:44;;;;;;;5.90;1.92;;;;;;;25.09;38.52;99975.60;1788635;79;21021;-83
2021/06/11 17:52:13;;;;;;;5.72;1.87;;;;;;;25.07;37.46;99987.18;1776745;79;21342;-82
2021/06/11 17:54:39;;;;;;;7.22;1.80;;;;;;;24.65;38.72;100008.10;1776117;79;21959;-81
2021/06/11 17:57:06;;;;;;;6.72;1.60;;;;;;;24.20;41.22;100046.93;1782437;79;21029;-79
2021/06/11 17:59:38;;;;;;;;;;;;;;;23.74;42.43;100011.17;1790161;79;21084;-81
2021/06/11 18:02:15;;;;;;;9.93;1.90;;;;;;;23.26;45.36;100010.17;1777122;78;20190;-79
2021/06/11 18:04:43;;;;;;;;;;;;;;;22.87;46.61;100005.95;1763374;80;21030;-78
2021/06/11 18:07:19;;;;;;;5.37;1.60;;;;;;;22.61;47.44;100014.58;1769726;80;21061;-78
2021/06/11 18:09:46;;;;;;;6.17;1.60;;;;;;;22.44;48.19;100019.92;1768682;80;21671;-80
2021/06/11 18:12:24;;;;;;;10.75;1.80;;;;;;;22.11;50.63;100029.40;1769800;80;21164;-82
2021/06/11 18:15:00;;;;;;;5.35;1.70;;;;;;;22.08;51.54;100025.33;1802869;78;21089;-80
2021/06/11 18:17:28;;;;;;;8.58;2.30;;;;;;;22.07;52.13;100027.72;1798933;77;21128;-80
2021/06/11 18:19:55;;;;;;;8.88;2.10;;;;;;;22.00;52.60;100020.28;1804326;78;21142;-78
2021/06/11 18:22:37;;;;;;;5.83;1.82;;;;;;;21.95;53.22;100007.55;1802254;79;21787;-77
2021/06/11 18:25:04;;;;;;;7.53;2.00;;;;;;;21.83;53.43;100008.08;1793740;79;21746;-79
2021/06/11 18:27:30;;;;;;;6.72;1.90;;;;;;;21.78;52.31;100003.94;1777269;79;22077;-81
2021/06/11 18:29:57;;;;;;;6.87;2.10;;;;;;;21.79;52.90;100010.42;1775217;79;21909;-83
2021/06/11 18:32:34;;;;;;;7.97;2.20;;;;;;;21.71;53.52;100006.75;1784790;79;21908;-81
2021/06/11 18:35:17;;;;;;;7.78;2.10;;;;;;;21.75;53.58;100007.09;1780827;79;20907;-81
2021/06/11 18:37:59;;;;;;;6.83;2.40;;;;;;;21.61;54.32;99997.09;1763873;79;21030;-79
2021/06/11 18:40:31;;;;;;;11.18;2.40;;;;;;;21.59;54.34;100000.02;1782912;79;21422;-80
2021/06/11 18:43:06;;;;;;;5.22;2.00;;;;;;;21.38;55.22;100000.03;1777046;79;21032;-80
2021/06/11 18:45:41;;;;;;;6.53;2.10;;;;;;;21.24;55.81;99998.58;1787703;79;21800;-79
2021/06/11 18:50:58;;;;;;;8.48;2.10;;;;;;;21.09;56.20;99990.97;1780631;79;21209;-79
2021/06/11 18:53:27;;;;;;;4.75;1.80;;;;;;;21.00;56.32;99989.66;1775696;79;21081;-79
2021/06/11 18:55:55;;;;;;;5.17;1.90;;;;;;;20.77;57.45;99989.36;1804850;78;21335;-79
2021/06/11 18:58:33;;;;;;;4.78;2.10;;;;;;;20.54;59.16;100007.98;1800830;78;21128;-79
2021/06/11 19:00:59;;;;;;;5.05;2.00;;;;;;;20.55;58.98;99993.00;1764171;80;21587;-79
2021/06/11 19:03:25;;;;;;;6.45;2.25;;;;;;;20.62;59.00;99996.96;1772156;79;21056;-80
2021/06/11 19:06:14;;;;;;;5.87;2.25;;;;;;;20.61;58.78;100004.17;1784088;80;20945;-80
2021/06/11 19:08:42;;;;;;;3.52;1.92;;;;;;;20.57;59.05;99996.80;1761618;80;21060;-79
2021/06/11 19:11:21;;;;;;;5.83;2.37;;;;;;;20.51;59.54;100003.06;1784788;80;21089;-79
2021/06/11 19:14:03;;;;;;;4.95;2.60;;;;;;;20.18;60.53;99996.23;1784677;80;21779;-80
2021/06/11 19:16:43;;;;;;;8.38;2.20;;;;;;;20.08;60.97;99988.19;1783690;80;21069;-76
2021/06/11 19:19:27;;;;;;;5.33;2.33;;;;;;;20.03;61.18;99992.06;1782203;80;21111;-79
2021/06/11 19:22:25;;;;;;;5.85;2.02;;;;;;;19.91;61.63;99988.48;1783757;80;21480;-78
2021/06/11 19:25:04;;;;;;;6.60;2.22;;;;;;;19.88;61.83;99991.60;1774554;80;20898;-80
2021/06/11 19:27:39;;;;;;;5.97;2.40;;;;;;;19.82;61.94;99985.25;1782082;80;21209;-78
2021/06/11 19:30:29;;;;;;;5.03;2.25;;;;;;;19.73;62.71;99994.59;1783555;80;21797;-78
2021/06/11 19:33:06;;;;;;;3.25;2.20;;;;;;;19.64;63.11;99990.05;1783828;80;21048;-80
2021/06/11 19:35:39;;;;;;;4.22;2.25;;;;;;;19.58;63.63;99996.78;1784424;80;21044;-80
2021/06/11 19:38:29;;;;;;;4.28;2.60;;;;;;;19.50;64.01;99995.23;1773483;80;22181;-78
2021/06/11 19:40:57;;;;;;;6.05;2.50;;;;;;;19.57;64.18;99997.30;1773315;80;21051;-79
2021/06/11 19:43:36;;;;;;;5.58;2.50;;;;;;;19.57;64.31;99999.98;1783408;80;21626;-79
2021/06/11 19:46:14;;;;;;;8.75;3.05;;;;;;;19.50;64.87;99999.24;1782935;80;21012;-78
2021/06/11 19:48:40;;;;;;;7.83;2.80;;;;;;;19.52;64.39;99991.80;1784723;80;21099;-77
2021/06/11 19:51:10;;;;;;;10.68;2.83;;;;;;;19.56;64.32;99999.70;1778837;80;21094;-78
2021/06/11 19:53:37;;;;;;;5.47;2.80;;;;;;;19.50;64.62;99997.38;1778593;78;21052;-80
2021/06/11 19:56:15;;;;;;;5.72;3.02;;;;;;;19.62;64.47;99996.13;1783918;80;21012;-79
2021/06/11 19:58:43;;;;;;;5.53;2.80;;;;;;;19.65;64.50;99993.00;1767617;80;21068;-79
2021/06/11 20:01:23;;;;;;;6.25;3.12;;;;;;;19.61;64.67;99982.95;1784500;80;21021;-78
2021/06/11 20:03:51;;;;;;;7.30;3.10;;;;;;;19.63;64.82;99992.41;1783723;80;21111;-81
2021/06/11 20:06:20;;;;;;;6.33;2.95;;;;;;;19.58;64.93;99997.62;1784023;80;21096;-77
2021/06/11 20:08:46;;;;;;;5.05;3.30;;;;;;;19.56;65.36;100001.05;1774811;80;21096;-78
2021/06/11 20:11:13;;;;;;;5.67;3.00;;;;;;;19.51;65.54;99999.52;1783791;80;21021;-77
2021/06/11 20:13:41;;;;;;;4.57;2.83;;;;;;;19.41;65.64;99995.20;1782899;80;21040;-77
2021/06/11 20:16:07;;;;;;;7.28;3.00;;;;;;;19.41;65.64;99995.20;1782242;80;21732;-77
2021/06/11 20:18:34;;;;;;;5.30;3.20;;;;;;;19.46;65.40;99996.69;1783125;80;20941;-76
2021/06/11 20:21:01;;;;;;;7.55;3.42;;;;;;;19.47;65.88;99997.00;1784623;80;21601;-78
2021/06/11 20:23:27;;;;;;;;;;;;;;;19.51;65.53;99993.66;1786577;80;21058;-77
2021/06/11 20:25:53;;;;;;;6.03;3.37;;;;;;;19.48;65.68;100003.97;1784121;80;20182;-77
2021/06/11 20:28:18;;;;;;;8.25;3.27;;;;;;;19.57;65.25;100001.33;1784038;80;21074;-76
2021/06/11 20:30:50;;;;;;;7.08;3.77;;;;;;;19.63;65.23;100000.45;1782174;80;20941;-76
2021/06/11 20:33:12;;;;;;;6.17;3.33;;;;;;;19.58;65.19;100000.30;1781661;80;21765;-76
2021/06/11 20:35:37;;;;;;;7.05;3.50;;;;;;;19.55;65.28;99996.19;1783715;80;21035;-76
2021/06/11 20:38:03;;;;;;;5.80;3.55;;;;;;;19.60;65.21;99996.06;1781890;80;21306;-75
2021/06/11 20:40:29;;;;;;;5.08;3.17;;;;;;;19.61;65.07;100002.54;1781633;80;21204;-77
2021/06/11 20:42:55;;;;;;;6.08;3.12;;;;;;;19.64;64.97;99999.92;1782857;80;20913;-77
2021/06/11 20:45:20;;;;;;;5.83;3.72;;;;;;;19.64;64.95;100002.09;1782808;80;20903;-77
2021/06/11 20:47:46;;;;;;;6.42;3.50;;;;;;;19.67;65.03;99998.98;1783057;80;20965;-76
2021/06/11 20:50:15;;;;;;;6.15;3.52;;;;;;;19.65;65.33;99994.34;1784016;80;20906;-77
2021/06/11 20:52:41;;;;;;;5.53;3.70;;;;;;;19.60;65.61;99998.21;1773389;80;21351;-76
2021/06/11 20:55:08;;;;;;;5.87;3.52;;;;;;;19.52;65.79;99995.81;1784156;80;21764;-76
2021/06/11 20:57:34;;;;;;;6.90;3.40;;;;;;;19.46;66.41;99996.69;1784652;80;21024;-76
2021/06/11 21:00:00;;;;;;;5.50;3.42;;;;;;;19.43;66.24;99997.94;1784077;80;20957;-75
2021/06/11 21:02:26;;;;;;;4.80;3.25;;;;;;;19.45;66.04;100000.39;1784201;80;20997;-75
2021/06/11 21:04:52;;;;;;;5.30;3.30;;;;;;;19.38;66.40;99995.10;1782897;80;21070;-76
2021/06/11 21:07:17;;;;;;;7.92;3.40;;;;;;;19.37;66.27;99990.77;1783776;80;20949;-75
2021/06/11 21:09:43;;;;;;;6.65;3.30;;;;;;;19.31;66.47;100000.52;1785004;80;20890;-77
2021/06/11 21:12:18;;;;;;;8.85;3.70;;;;;;;19.25;66.84;99998.70;1781713;80;20882;-75
2021/06/11 21:14:47;;;;;;;5.45;3.22;;;;;;;19.15;67.28;99995.67;1783859;80;21376;-75
2021/06/11 21:17:14;;;;;;;4.95;3.22;;;;;;;19.05;67.69;99998.00;1780812;80;22231;-75
2021/06/11 21:19:40;;;;;;;7.37;3.20;;;;;;;19.05;67.44;99995.32;1772364;80;21734;-77
2021/06/11 21:22:05;;;;;;;10.32;4.00;;;;;;;18.93;67.97;99999.22;1782868;80;21327;-76
2021/06/11 21:24:32;;;;;;;6.83;3.58;;;;;;;18.89;68.01;100000.14;1783385;80;21044;-73
2021/06/11 21:26:58;;;;;;;6.22;3.70;;;;;;;18.94;68.11;100008.37;1784525;80;21546;-73
2021/06/11 21:29:24;;;;;;;8.65;3.65;;;;;;;18.83;68.52;100003.64;1780931;80;22199;-74
2021/06/11 21:31:49;;;;;;;6.95;3.90;;;;;;;18.84;68.40;99999.95;1780065;80;21825;-74
2021/06/11 21:34:15;;;;;;;5.65;3.70;;;;;;;18.82;68.88;100000.69;1782145;80;21044;-75
2021/06/11 21:36:41;;;;;;;8.23;3.67;;;;;;;18.77;68.98;100007.20;1783769;80;21133;-75
2021/06/11 21:39:07;;;;;;;4.78;3.30;;;;;;;18.70;69.35;100018.45;1783352;80;21502;-74
2021/06/11 21:41:34;;;;;;;5.65;3.65;;;;;;;18.65;69.31;100011.87;1783804;80;22123;-75
2021/06/11 21:44:00;;;;;;;6.90;3.80;;;;;;;18.70;68.94;100009.08;1783118;80;21025;-74
2021/06/11 21:46:27;;;;;;;5.42;3.70;;;;;;;18.62;69.09;100011.48;1781988;80;20936;-75
2021/06/11 21:48:54;;;;;;;6.22;3.90;;;;;;;18.74;68.99;100011.64;1780895;80;20972;-75
2021/06/11 21:51:19;;;;;;;7.58;3.92;;;;;;;18.76;68.99;100010.91;1781837;80;21028;-75
2021/06/11 21:53:47;;;;;;;6.97;4.35;;;;;;;18.93;68.89;100013.94;1783196;80;21585;-76
2021/06/11 21:56:14;;;;;;;7.85;4.50;;;;;;;18.89;68.58;100018.88;1782765;80;21021;-73
2021/06/11 21:58:40;;;;;;;5.97;4.12;;;;;;;18.97;68.72;100012.45;1783446;80;21041;-74
2021/06/11 22:01:06;;;;;;;9.35;3.85;;;;;;;19.07;68.26;100003.97;1783878;80;20874;-74
2021/06/11 22:03:33;;;;;;;11.67;4.57;;;;;;;19.21;67.85;100006.05;1784547;80;21883;-74
2021/06/11 22:05:59;;;;;;;7.30;4.97;;;;;;;19.07;68.80;100006.66;1785300;80;21983;-74
2021/06/11 22:08:25;;;;;;;7.37;4.87;;;;;;;18.85;69.75;100005.64;1781965;80;20969;-75
2021/06/11 22:10:51;;;;;;;7.53;4.95;;;;;;;18.85;69.75;100005.64;1784369;80;21905;-74
2021/06/11 22:13:17;;;;;;;9.53;5.00;;;;;;;18.85;69.76;100004.30;1777468;80;21925;-74
2021/06/11 22:15:42;;;;;;;8.45;4.90;;;;;;;18.81;69.72;100003.05;1782647;80;20993;-75
2021/06/11 22:18:08;;;;;;;8.15;5.58;;;;;;;18.82;69.66;100006.04;1783207;80;21130;-74
2021/06/11 22:20:34;;;;;;;10.45;5.42;;;;;;;18.81;69.84;100007.06;1782606;80;20882;-73
2021/06/11 22:23:00;;;;;;;8.08;5.47;;;;;;;18.76;70.40;100006.89;1783219;80;20906;-74
2021/06/11 22:25:26;;;;;;;8.68;5.12;;;;;;;18.69;70.77;100012.78;1784419;80;20957;-74
2021/06/11 22:27:54;;;;;;;10.35;5.67;;;;;;;18.57;71.87;100016.13;1784179;80;20863;-74
2021/06/11 22:30:21;;;;;;;8.20;5.80;;;;;;;18.57;71.57;100015.32;1783431;80;21279;-74
2021/06/11 22:32:47;;;;;;;9.05;5.70;;;;;;;18.47;72.15;100011.73;1783079;80;20957;-74
2021/06/11 22:35:13;;;;;;;8.28;6.10;;;;;;;18.41;72.70;100013.91;1783789;80;22194;-74
2021/06/11 22:37:38;;;;;;;9.43;5.90;;;;;;;18.38;73.06;100011.66;1783622;80;21512;-74
2021/06/11 22:40:06;;;;;;;13.75;6.37;;;;;;;18.39;72.81;100008.78;1784737;80;21071;-74
2021/06/11 22:42:32;;;;;;;7.85;5.90;;;;;;;18.36;73.15;100007.86;1783605;80;21579;-74
2021/06/11 22:44:58;;;;;;;11.50;6.20;;;;;;;18.36;73.31;100005.72;1784672;80;21594;-74
2021/06/11 22:47:25;;;;;;;14.73;6.60;;;;;;;18.34;73.28;100007.79;1781659;80;21228;-74
2021/06/11 22:49:50;;;;;;;12.53;7.08;;;;;;;18.27;74.06;100011.30;1783444;80;21793;-74
2021/06/11 22:52:16;;;;;;;9.83;6.15;;;;;;;18.15;74.82;100007.63;1784716;80;21349;-74
2021/06/11 22:54:42;;;;;;;10.80;6.03;;;;;;;18.16;74.87;100006.58;1783291;80;21065;-74
2021/06/11 22:57:08;;;;;;;11.65;6.75;;;;;;;18.01;75.97;100008.70;1784609;80;21254;-74
2021/06/11 22:59:34;;;;;;;10.70;6.37;;;;;;;17.99;75.89;100005.39;1784659;80;20921;-74
2021/06/11 23:02:00;;;;;;;11.57;6.78;;;;;;;18.11;75.16;100005.06;1782818;80;20901;-74
2021/06/11 23:04:26;;;;;;;12.03;6.60;;;;;;;18.15;74.86;100006.30;1784946;80;21336;-74
2021/06/11 23:06:52;;;;;;;8.93;6.08;;;;;;;18.20;74.59;100008.34;1783337;80;21086;-73
2021/06/11 23:09:18;;;;;;;8.70;6.17;;;;;;;18.13;74.91;100007.00;1784147;80;20940;-73
2021/06/11 23:11:43;;;;;;;11.48;6.12;;;;;;;18.13;74.88;100002.99;1779750;80;20984;-75
2021/06/11 23:14:10;;;;;;;10.32;6.28;;;;;;;18.19;74.53;100003.49;1772023;80;20875;-75
2021/06/11 23:16:36;;;;;;;9.17;5.70;;;;;;;18.26;74.23;100002.97;1783038;80;21079;-73
2021/06/11 23:19:02;;;;;;;12.90;6.78;;;;;;;18.30;73.98;100002.86;1783892;80;21157;-73
2021/06/11 23:21:27;;;;;;;12.53;6.67;;;;;;;18.36;73.76;99995.83;1783759;80;21015;-74
2021/06/11 23:23:53;;;;;;;12.28;6.67;;;;;;;18.36;73.73;100005.72;1783619;80;20969;-74
2021/06/11 23:26:19;;;;;;;10.48;6.50;;;;;;;18.41;73.46;100003.22;1783949;80;20970;-73
2021/06/11 23:28:44;;;;;;;11.08;6.40;;;;;;;18.48;73.08;100000.02;1782556;80;20858;-75
2021/06/11 23:31:10;;;;;;;13.45;6.67;;;;;;;18.57;72.72;100001.42;1783051;80;21018;-74
2021/06/11 23:33:36;;;;;;;11.95;7.40;;;;;;;18.60;72.37;99999.66;1781986;80;21243;-74
2021/06/11 23:36:02;;;;;;;9.70;6.47;;;;;;;18.62;72.04;100000.26;1784057;80;21056;-75